sensor_id;sensor_type;location;lat;lon;timestamp;P1;durP1;ratioP1;P2;durP2;ratioP2
7563;SDS011;3823;53.586;10.040;2023-03-23T00:02:02;7.15;;;5.72;;
7563;SDS011;3823;53.586;10.040;2023-03-23T00:04:28;8.07;;;6.00;;
7563;SDS011;3823;53.586;10.040;2023-03-23T00:06:56;9.25;;;7.55;;
7563;SDS011;3823;53.586;10.040;2023-03-23T00:09:21;10.25;;;7.28;;
7563;SDS011;3823;53.586;10.040;2023-03-23T00:11:48;10.32;;;7.32;;
7563;SDS011;3823;53.586;10.040;2023-03-23T00:14:15;10.80;;;6.97;;
7563;SDS011;3823;53.586;10.040;2023-03-23T00:16:41;10.48;;;8.48;;
7563;SDS011;3823;53.586;10.040;2023-03-23T00:19:08;10.13;;;7.55;;
7563;SDS011;3823;53.586;10.040;2023-03-23T00:21:38;11.27;;;8.70;;
7563;SDS011;3823;53.586;10.040;2023-03-23T00:24:08;12.60;;;8.77;;
7563;SDS011;3823;53.586;10.040;2023-03-23T00:26:41;10.48;;;8.23;;
7563;SDS011;3823;53.586;10.040;2023-03-23T00:29:10;12.65;;;8.18;;
7563;SDS011;3823;53.586;10.040;2023-03-23T00:31:47;13.55;;;9.88;;
7563;SDS011;3823;53.586;10.040;2023-03-23T00:34:14;11.10;;;8.93;;
7563;SDS011;3823;53.586;10.040;2023-03-23T00:36:54;11.93;;;9.60;;
7563;SDS011;3823;53.586;10.040;2023-03-23T00:39:23;12.70;;;10.38;;
7563;SDS011;3823;53.586;10.040;2023-03-23T00:41:50;16.00;;;11.05;;
7563;SDS011;3823;53.586;10.040;2023-03-23T00:44:16;14.65;;;10.77;;
7563;SDS011;3823;53.586;10.040;2023-03-23T00:46:48;11.45;;;10.25;;
7563;SDS011;3823;53.586;10.040;2023-03-23T00:49:18;16.83;;;10.82;;
7563;SDS011;3823;53.586;10.040;2023-03-23T00:51:45;12.20;;;10.20;;
7563;SDS011;3823;53.586;10.040;2023-03-23T00:54:11;16.52;;;11.02;;
7563;SDS011;3823;53.586;10.040;2023-03-23T00:56:37;15.77;;;9.73;;
7563;SDS011;3823;53.586;10.040;2023-03-23T00:59:06;15.10;;;10.93;;
7563;SDS011;3823;53.586;10.040;2023-03-23T01:01:32;13.68;;;10.50;;
7563;SDS011;3823;53.586;10.040;2023-03-23T01:03:59;13.50;;;9.98;;
7563;SDS011;3823;53.586;10.040;2023-03-23T01:06:29;12.68;;;10.00;;
7563;SDS011;3823;53.586;10.040;2023-03-23T01:08:57;15.05;;;9.95;;
7563;SDS011;3823;53.586;10.040;2023-03-23T01:11:24;12.57;;;9.77;;
7563;SDS011;3823;53.586;10.040;2023-03-23T01:13:50;14.02;;;10.48;;
7563;SDS011;3823;53.586;10.040;2023-03-23T01:16:16;12.93;;;9.38;;
7563;SDS011;3823;53.586;10.040;2023-03-23T01:18:42;12.88;;;10.38;;
7563;SDS011;3823;53.586;10.040;2023-03-23T01:21:09;14.38;;;10.15;;
7563;SDS011;3823;53.586;10.040;2023-03-23T01:23:36;13.68;;;10.48;;
7563;SDS011;3823;53.586;10.040;2023-03-23T01:26:12;12.23;;;8.88;;
7563;SDS011;3823;53.586;10.040;2023-03-23T01:28:40;13.75;;;10.07;;
7563;SDS011;3823;53.586;10.040;2023-03-23T01:31:07;13.43;;;9.88;;
7563;SDS011;3823;53.586;10.040;2023-03-23T01:33:36;14.30;;;11.50;;
7563;SDS011;3823;53.586;10.040;2023-03-23T01:36:23;17.55;;;11.30;;
7563;SDS011;3823;53.586;10.040;2023-03-23T01:38:51;12.88;;;11.48;;
7563;SDS011;3823;53.586;10.040;2023-03-23T01:41:18;18.70;;;11.98;;
7563;SDS011;3823;53.586;10.040;2023-03-23T01:46:31;16.67;;;12.02;;
7563;SDS011;3823;53.586;10.040;2023-03-23T01:49:06;16.67;;;12.40;;
7563;SDS011;3823;53.586;10.040;2023-03-23T01:51:36;14.35;;;11.02;;
7563;SDS011;3823;53.586;10.040;2023-03-23T01:54:06;13.27;;;11.23;;
7563;SDS011;3823;53.586;10.040;2023-03-23T01:56:39;16.13;;;11.80;;
7563;SDS011;3823;53.586;10.040;2023-03-23T01:59:10;16.90;;;12.95;;
7563;SDS011;3823;53.586;10.040;2023-03-23T02:01:37;17.95;;;12.93;;
7563;SDS011;3823;53.586;10.040;2023-03-23T02:04:08;14.50;;;11.73;;
7563;SDS011;3823;53.586;10.040;2023-03-23T02:06:34;19.33;;;12.90;;
7563;SDS011;3823;53.586;10.040;2023-03-23T02:08:59;17.25;;;13.38;;
7563;SDS011;3823;53.586;10.040;2023-03-23T02:11:25;16.02;;;12.48;;
7563;SDS011;3823;53.586;10.040;2023-03-23T02:13:51;16.55;;;13.85;;
7563;SDS011;3823;53.586;10.040;2023-03-23T02:16:26;19.63;;;12.30;;
7563;SDS011;3823;53.586;10.040;2023-03-23T02:30:48;15.82;;;11.23;;
7563;SDS011;3823;53.586;10.040;2023-03-23T02:33:42;16.60;;;10.82;;
7563;SDS011;3823;53.586;10.040;2023-03-23T02:41:21;14.02;;;10.80;;
7563;SDS011;3823;53.586;10.040;2023-03-23T02:43:50;14.50;;;10.48;;
7563;SDS011;3823;53.586;10.040;2023-03-23T02:46:17;11.60;;;8.63;;
7563;SDS011;3823;53.586;10.040;2023-03-23T02:48:45;11.05;;;9.43;;
7563;SDS011;3823;53.586;10.040;2023-03-23T02:51:13;13.55;;;8.60;;
7563;SDS011;3823;53.586;10.040;2023-03-23T02:53:41;12.65;;;9.70;;
7563;SDS011;3823;53.586;10.040;2023-03-23T02:56:08;13.48;;;10.05;;
7563;SDS011;3823;53.586;10.040;2023-03-23T02:58:36;12.88;;;9.18;;
7563;SDS011;3823;53.586;10.040;2023-03-23T03:03:49;13.02;;;9.52;;
7563;SDS011;3823;53.586;10.040;2023-03-23T03:06:23;10.85;;;9.52;;
7563;SDS011;3823;53.586;10.040;2023-03-23T03:09:02;12.77;;;9.73;;
7563;SDS011;3823;53.586;10.040;2023-03-23T03:11:32;11.65;;;10.07;;
7563;SDS011;3823;53.586;10.040;2023-03-23T03:14:02;10.18;;;9.18;;
7563;SDS011;3823;53.586;10.040;2023-03-23T03:16:44;11.25;;;10.10;;
7563;SDS011;3823;53.586;10.040;2023-03-23T03:19:26;10.75;;;9.50;;
7563;SDS011;3823;53.586;10.040;2023-03-23T03:21:56;13.38;;;10.65;;
7563;SDS011;3823;53.586;10.040;2023-03-23T03:24:24;11.48;;;10.35;;
7563;SDS011;3823;53.586;10.040;2023-03-23T03:26:53;12.68;;;10.80;;
7563;SDS011;3823;53.586;10.040;2023-03-23T03:29:23;13.73;;;10.80;;
7563;SDS011;3823;53.586;10.040;2023-03-23T03:31:54;10.88;;;9.45;;
7563;SDS011;3823;53.586;10.040;2023-03-23T03:34:23;12.13;;;10.82;;
7563;SDS011;3823;53.586;10.040;2023-03-23T03:36:49;15.13;;;10.70;;
7563;SDS011;3823;53.586;10.040;2023-03-23T03:39:18;11.68;;;10.48;;
7563;SDS011;3823;53.586;10.040;2023-03-23T03:41:45;12.77;;;10.65;;
7563;SDS011;3823;53.586;10.040;2023-03-23T03:44:11;11.38;;;10.02;;
7563;SDS011;3823;53.586;10.040;2023-03-23T03:46:37;12.52;;;9.82;;
7563;SDS011;3823;53.586;10.040;2023-03-23T03:49:05;13.52;;;10.38;;
7563;SDS011;3823;53.586;10.040;2023-03-23T03:51:34;12.85;;;10.65;;
7563;SDS011;3823;53.586;10.040;2023-03-23T03:54:00;15.85;;;11.63;;
7563;SDS011;3823;53.586;10.040;2023-03-23T03:56:26;20.35;;;10.90;;
7563;SDS011;3823;53.586;10.040;2023-03-23T03:58:52;15.05;;;11.68;;
7563;SDS011;3823;53.586;10.040;2023-03-23T04:01:19;15.48;;;10.57;;
7563;SDS011;3823;53.586;10.040;2023-03-23T04:03:49;12.55;;;10.88;;
7563;SDS011;3823;53.586;10.040;2023-03-23T04:06:16;14.93;;;11.18;;
7563;SDS011;3823;53.586;10.040;2023-03-23T04:08:42;14.95;;;10.48;;
7563;SDS011;3823;53.586;10.040;2023-03-23T04:11:10;13.75;;;10.73;;
7563;SDS011;3823;53.586;10.040;2023-03-23T04:13:37;12.32;;;11.13;;
7563;SDS011;3823;53.586;10.040;2023-03-23T04:16:03;11.55;;;10.45;;
7563;SDS011;3823;53.586;10.040;2023-03-23T04:18:29;13.43;;;11.13;;
7563;SDS011;3823;53.586;10.040;2023-03-23T04:20:57;13.45;;;11.00;;
7563;SDS011;3823;53.586;10.040;2023-03-23T04:23:24;11.93;;;10.52;;
7563;SDS011;3823;53.586;10.040;2023-03-23T04:25:51;15.98;;;10.80;;
7563;SDS011;3823;53.586;10.040;2023-03-23T04:28:21;12.52;;;10.32;;
7563;SDS011;3823;53.586;10.040;2023-03-23T04:30:48;11.10;;;9.80;;
7563;SDS011;3823;53.586;10.040;2023-03-23T04:33:24;13.23;;;11.27;;
7563;SDS011;3823;53.586;10.040;2023-03-23T04:35:54;12.13;;;9.93;;
7563;SDS011;3823;53.586;10.040;2023-03-23T04:38:25;12.02;;;10.32;;
7563;SDS011;3823;53.586;10.040;2023-03-23T04:40:52;12.80;;;11.48;;
7563;SDS011;3823;53.586;10.040;2023-03-23T04:43:19;16.05;;;10.20;;
7563;SDS011;3823;53.586;10.040;2023-03-23T04:45:52;15.75;;;11.68;;
7563;SDS011;3823;53.586;10.040;2023-03-23T04:48:21;12.40;;;10.18;;
7563;SDS011;3823;53.586;10.040;2023-03-23T04:50:51;14.82;;;10.30;;
7563;SDS011;3823;53.586;10.040;2023-03-23T04:53:17;10.73;;;9.60;;
7563;SDS011;3823;53.586;10.040;2023-03-23T04:55:43;13.27;;;11.82;;
7563;SDS011;3823;53.586;10.040;2023-03-23T04:58:09;13.63;;;11.63;;
7563;SDS011;3823;53.586;10.040;2023-03-23T05:00:39;11.25;;;9.98;;
7563;SDS011;3823;53.586;10.040;2023-03-23T05:03:09;10.98;;;9.82;;
7563;SDS011;3823;53.586;10.040;2023-03-23T05:05:35;12.80;;;11.50;;
7563;SDS011;3823;53.586;10.040;2023-03-23T05:08:01;15.30;;;11.95;;
7563;SDS011;3823;53.586;10.040;2023-03-23T05:10:27;11.13;;;9.77;;
7563;SDS011;3823;53.586;10.040;2023-03-23T05:12:53;13.43;;;11.40;;
7563;SDS011;3823;53.586;10.040;2023-03-23T05:15:18;12.45;;;11.25;;
7563;SDS011;3823;53.586;10.040;2023-03-23T05:17:44;17.10;;;12.95;;
7563;SDS011;3823;53.586;10.040;2023-03-23T05:20:10;13.48;;;12.05;;
7563;SDS011;3823;53.586;10.040;2023-03-23T05:22:39;11.95;;;10.45;;
7563;SDS011;3823;53.586;10.040;2023-03-23T05:25:06;13.77;;;11.27;;
7563;SDS011;3823;53.586;10.040;2023-03-23T05:27:36;11.13;;;9.93;;
7563;SDS011;3823;53.586;10.040;2023-03-23T05:30:02;12.25;;;11.05;;
7563;SDS011;3823;53.586;10.040;2023-03-23T05:32:29;13.55;;;10.48;;
7563;SDS011;3823;53.586;10.040;2023-03-23T05:34:56;11.77;;;10.52;;
7563;SDS011;3823;53.586;10.040;2023-03-23T05:37:22;11.70;;;9.90;;
7563;SDS011;3823;53.586;10.040;2023-03-23T05:39:48;11.98;;;9.95;;
7563;SDS011;3823;53.586;10.040;2023-03-23T05:42:18;11.93;;;9.80;;
7563;SDS011;3823;53.586;10.040;2023-03-23T05:44:47;14.02;;;8.73;;
7563;SDS011;3823;53.586;10.040;2023-03-23T05:47:13;10.55;;;8.65;;
7563;SDS011;3823;53.586;10.040;2023-03-23T05:49:38;14.70;;;9.77;;
7563;SDS011;3823;53.586;10.040;2023-03-23T05:52:04;10.63;;;9.50;;
7563;SDS011;3823;53.586;10.040;2023-03-23T05:54:30;10.07;;;8.98;;
7563;SDS011;3823;53.586;10.040;2023-03-23T05:56:55;9.65;;;8.65;;
7563;SDS011;3823;53.586;10.040;2023-03-23T05:59:21;9.93;;;8.55;;
7563;SDS011;3823;53.586;10.040;2023-03-23T06:01:47;11.63;;;8.68;;
7563;SDS011;3823;53.586;10.040;2023-03-23T06:04:13;8.35;;;7.30;;
7563;SDS011;3823;53.586;10.040;2023-03-23T06:06:39;11.48;;;8.52;;
7563;SDS011;3823;53.586;10.040;2023-03-23T06:09:06;12.52;;;8.75;;
7563;SDS011;3823;53.586;10.040;2023-03-23T06:11:32;7.10;;;6.38;;
7563;SDS011;3823;53.586;10.040;2023-03-23T06:13:58;8.30;;;7.47;;
7563;SDS011;3823;53.586;10.040;2023-03-23T06:16:23;9.48;;;8.10;;
7563;SDS011;3823;53.586;10.040;2023-03-23T06:18:50;6.90;;;6.30;;
7563;SDS011;3823;53.586;10.040;2023-03-23T06:21:16;8.43;;;6.40;;
7563;SDS011;3823;53.586;10.040;2023-03-23T06:23:43;8.18;;;6.80;;
7563;SDS011;3823;53.586;10.040;2023-03-23T06:26:09;6.95;;;6.35;;
7563;SDS011;3823;53.586;10.040;2023-03-23T06:28:39;6.50;;;5.88;;
7563;SDS011;3823;53.586;10.040;2023-03-23T06:31:05;8.43;;;6.93;;
7563;SDS011;3823;53.586;10.040;2023-03-23T06:33:36;7.10;;;6.40;;
7563;SDS011;3823;53.586;10.040;2023-03-23T06:36:03;8.65;;;6.18;;
7563;SDS011;3823;53.586;10.040;2023-03-23T06:38:29;8.48;;;5.90;;
7563;SDS011;3823;53.586;10.040;2023-03-23T06:40:56;6.78;;;5.75;;
7563;SDS011;3823;53.586;10.040;2023-03-23T06:43:22;7.90;;;6.60;;
7563;SDS011;3823;53.586;10.040;2023-03-23T06:45:49;12.02;;;7.50;;
7563;SDS011;3823;53.586;10.040;2023-03-23T06:48:15;6.47;;;4.72;;
7563;SDS011;3823;53.586;10.040;2023-03-23T06:50:44;5.60;;;4.93;;
7563;SDS011;3823;53.586;10.040;2023-03-23T06:53:11;6.13;;;5.40;;
7563;SDS011;3823;53.586;10.040;2023-03-23T06:55:37;7.13;;;5.05;;
7563;SDS011;3823;53.586;10.040;2023-03-23T06:58:04;7.78;;;5.60;;
7563;SDS011;3823;53.586;10.040;2023-03-23T07:00:31;8.15;;;6.10;;
7563;SDS011;3823;53.586;10.040;2023-03-23T07:02:57;7.57;;;5.20;;
7563;SDS011;3823;53.586;10.040;2023-03-23T07:05:23;5.70;;;5.10;;
7563;SDS011;3823;53.586;10.040;2023-03-23T07:07:49;5.82;;;4.78;;
7563;SDS011;3823;53.586;10.040;2023-03-23T07:10:14;5.65;;;5.15;;
7563;SDS011;3823;53.586;10.040;2023-03-23T07:12:40;10.23;;;6.43;;
7563;SDS011;3823;53.586;10.040;2023-03-23T07:15:07;5.75;;;4.88;;
7563;SDS011;3823;53.586;10.040;2023-03-23T07:17:35;5.57;;;5.18;;
7563;SDS011;3823;53.586;10.040;2023-03-23T07:20:02;5.10;;;4.70;;
7563;SDS011;3823;53.586;10.040;2023-03-23T07:22:28;5.15;;;4.72;;
7563;SDS011;3823;53.586;10.040;2023-03-23T07:24:53;5.57;;;5.07;;
7563;SDS011;3823;53.586;10.040;2023-03-23T07:27:19;4.50;;;4.10;;
7563;SDS011;3823;53.586;10.040;2023-03-23T07:29:45;4.28;;;3.95;;
7563;SDS011;3823;53.586;10.040;2023-03-23T07:32:11;3.72;;;3.42;;
7563;SDS011;3823;53.586;10.040;2023-03-23T07:34:37;4.53;;;4.13;;
7563;SDS011;3823;53.586;10.040;2023-03-23T07:37:03;6.45;;;4.47;;
7563;SDS011;3823;53.586;10.040;2023-03-23T07:39:29;7.15;;;4.10;;
7563;SDS011;3823;53.586;10.040;2023-03-23T07:41:54;4.88;;;4.32;;
7563;SDS011;3823;53.586;10.040;2023-03-23T07:44:20;4.90;;;4.50;;
7563;SDS011;3823;53.586;10.040;2023-03-23T07:46:49;5.60;;;4.57;;
7563;SDS011;3823;53.586;10.040;2023-03-23T07:49:16;5.07;;;4.38;;
7563;SDS011;3823;53.586;10.040;2023-03-23T07:51:42;5.25;;;3.83;;
7563;SDS011;3823;53.586;10.040;2023-03-23T07:54:07;6.95;;;4.50;;
7563;SDS011;3823;53.586;10.040;2023-03-23T07:56:34;4.78;;;4.18;;
7563;SDS011;3823;53.586;10.040;2023-03-23T07:59:01;5.47;;;5.05;;
7563;SDS011;3823;53.586;10.040;2023-03-23T08:01:27;8.65;;;5.65;;
7563;SDS011;3823;53.586;10.040;2023-03-23T08:03:54;7.57;;;4.90;;
7563;SDS011;3823;53.586;10.040;2023-03-23T08:06:22;6.75;;;5.43;;
7563;SDS011;3823;53.586;10.040;2023-03-23T08:08:48;5.43;;;4.97;;
7563;SDS011;3823;53.586;10.040;2023-03-23T08:11:14;6.40;;;5.40;;
7563;SDS011;3823;53.586;10.040;2023-03-23T08:13:41;6.35;;;5.53;;
7563;SDS011;3823;53.586;10.040;2023-03-23T08:16:08;6.32;;;5.78;;
7563;SDS011;3823;53.586;10.040;2023-03-23T08:18:34;7.03;;;6.32;;
7563;SDS011;3823;53.586;10.040;2023-03-23T08:21:01;7.25;;;6.55;;
7563;SDS011;3823;53.586;10.040;2023-03-23T08:23:29;6.55;;;5.95;;
7563;SDS011;3823;53.586;10.040;2023-03-23T08:25:55;5.75;;;5.20;;
7563;SDS011;3823;53.586;10.040;2023-03-23T08:28:21;6.85;;;5.88;;
7563;SDS011;3823;53.586;10.040;2023-03-23T08:30:46;7.15;;;6.07;;
7563;SDS011;3823;53.586;10.040;2023-03-23T08:33:13;12.25;;;6.57;;
7563;SDS011;3823;53.586;10.040;2023-03-23T08:35:39;3.42;;;3.13;;
7563;SDS011;3823;53.586;10.040;2023-03-23T08:38:05;4.03;;;3.72;;
7563;SDS011;3823;53.586;10.040;2023-03-23T08:40:31;4.25;;;3.60;;
7563;SDS011;3823;53.586;10.040;2023-03-23T08:42:57;5.78;;;3.50;;
7563;SDS011;3823;53.586;10.040;2023-03-23T08:45:24;3.78;;;2.90;;
7563;SDS011;3823;53.586;10.040;2023-03-23T08:47:50;3.10;;;2.60;;
7563;SDS011;3823;53.586;10.040;2023-03-23T08:50:18;3.42;;;2.30;;
7563;SDS011;3823;53.586;10.040;2023-03-23T08:52:47;2.03;;;1.92;;
7563;SDS011;3823;53.586;10.040;2023-03-23T08:55:14;2.38;;;2.17;;
7563;SDS011;3823;53.586;10.040;2023-03-23T08:57:40;2.17;;;1.98;;
7563;SDS011;3823;53.586;10.040;2023-03-23T09:00:08;8.05;;;2.80;;
7563;SDS011;3823;53.586;10.040;2023-03-23T09:02:43;4.38;;;2.13;;
7563;SDS011;3823;53.586;10.040;2023-03-23T09:05:14;5.97;;;2.90;;
7563;SDS011;3823;53.586;10.040;2023-03-23T09:07:41;3.03;;;2.70;;
7563;SDS011;3823;53.586;10.040;2023-03-23T09:10:09;4.35;;;3.15;;
7563;SDS011;3823;53.586;10.040;2023-03-23T09:12:35;5.10;;;3.13;;
7563;SDS011;3823;53.586;10.040;2023-03-23T09:15:01;4.88;;;2.83;;
7563;SDS011;3823;53.586;10.040;2023-03-23T09:17:41;3.55;;;2.90;;
7563;SDS011;3823;53.586;10.040;2023-03-23T09:20:09;3.55;;;3.13;;
7563;SDS011;3823;53.586;10.040;2023-03-23T09:22:37;4.22;;;2.42;;
7563;SDS011;3823;53.586;10.040;2023-03-23T09:25:05;2.78;;;1.92;;
7563;SDS011;3823;53.586;10.040;2023-03-23T09:27:32;5.45;;;2.28;;
7563;SDS011;3823;53.586;10.040;2023-03-23T09:29:58;7.78;;;3.28;;
7563;SDS011;3823;53.586;10.040;2023-03-23T09:32:25;7.65;;;2.30;;
7563;SDS011;3823;53.586;10.040;2023-03-23T09:34:51;4.65;;;1.85;;
7563;SDS011;3823;53.586;10.040;2023-03-23T09:37:20;8.68;;;1.63;;
7563;SDS011;3823;53.586;10.040;2023-03-23T09:39:45;12.13;;;3.58;;
7563;SDS011;3823;53.586;10.040;2023-03-23T09:42:20;4.93;;;1.63;;
7563;SDS011;3823;53.586;10.040;2023-03-23T09:45:02;7.05;;;2.47;;
7563;SDS011;3823;53.586;10.040;2023-03-23T09:47:47;3.20;;;2.22;;
7563;SDS011;3823;53.586;10.040;2023-03-23T09:50:43;6.43;;;1.88;;
7563;SDS011;3823;53.586;10.040;2023-03-23T09:53:16;5.75;;;1.95;;
7563;SDS011;3823;53.586;10.040;2023-03-23T09:55:46;4.75;;;1.88;;
7563;SDS011;3823;53.586;10.040;2023-03-23T10:01:20;10.43;;;1.60;;
7563;SDS011;3823;53.586;10.040;2023-03-23T10:04:05;8.05;;;2.47;;
7563;SDS011;3823;53.586;10.040;2023-03-23T10:06:37;4.30;;;1.80;;
7563;SDS011;3823;53.586;10.040;2023-03-23T10:09:03;8.52;;;2.50;;
7563;SDS011;3823;53.586;10.040;2023-03-23T10:14:03;3.55;;;2.00;;
7563;SDS011;3823;53.586;10.040;2023-03-23T10:16:33;13.15;;;3.42;;
7563;SDS011;3823;53.586;10.040;2023-03-23T10:19:11;12.07;;;1.80;;
7563;SDS011;3823;53.586;10.040;2023-03-23T10:21:55;3.08;;;1.70;;
7563;SDS011;3823;53.586;10.040;2023-03-23T10:24:35;9.45;;;3.15;;
7563;SDS011;3823;53.586;10.040;2023-03-23T10:27:13;6.70;;;2.45;;
7563;SDS011;3823;53.586;10.040;2023-03-23T10:29:58;4.35;;;1.70;;
7563;SDS011;3823;53.586;10.040;2023-03-23T10:35:14;5.38;;;2.10;;
7563;SDS011;3823;53.586;10.040;2023-03-23T10:37:48;8.80;;;2.47;;
7563;SDS011;3823;53.586;10.040;2023-03-23T10:40:20;3.97;;;1.50;;
7563;SDS011;3823;53.586;10.040;2023-03-23T10:42:49;5.88;;;2.10;;
7563;SDS011;3823;53.586;10.040;2023-03-23T10:45:20;7.13;;;2.10;;
7563;SDS011;3823;53.586;10.040;2023-03-23T10:50:35;7.50;;;2.97;;
7563;SDS011;3823;53.586;10.040;2023-03-23T10:53:03;10.40;;;2.47;;
7563;SDS011;3823;53.586;10.040;2023-03-23T10:55:52;5.38;;;1.80;;
7563;SDS011;3823;53.586;10.040;2023-03-23T10:58:24;9.45;;;2.42;;
7563;SDS011;3823;53.586;10.040;2023-03-23T11:00:56;6.18;;;1.98;;
7563;SDS011;3823;53.586;10.040;2023-03-23T11:03:24;12.40;;;2.60;;
7563;SDS011;3823;53.586;10.040;2023-03-23T11:06:19;7.97;;;2.53;;
7563;SDS011;3823;53.586;10.040;2023-03-23T11:09:32;4.75;;;2.72;;
7563;SDS011;3823;53.586;10.040;2023-03-23T11:11:38;7.75;;;2.72;;
7563;SDS011;3823;53.586;10.040;2023-03-23T11:14:19;8.85;;;2.63;;
7563;SDS011;3823;53.586;10.040;2023-03-23T11:17:00;4.55;;;1.80;;
7563;SDS011;3823;53.586;10.040;2023-03-23T11:19:28;16.10;;;2.55;;
7563;SDS011;3823;53.586;10.040;2023-03-23T11:21:59;5.63;;;2.15;;
7563;SDS011;3823;53.586;10.040;2023-03-23T11:24:33;6.57;;;1.95;;
7563;SDS011;3823;53.586;10.040;2023-03-23T11:27:08;6.35;;;2.03;;
7563;SDS011;3823;53.586;10.040;2023-03-23T11:29:34;8.15;;;2.40;;
7563;SDS011;3823;53.586;10.040;2023-03-23T11:32:14;6.60;;;2.10;;
7563;SDS011;3823;53.586;10.040;2023-03-23T11:34:42;15.63;;;2.70;;
7563;SDS011;3823;53.586;10.040;2023-03-23T11:37:25;16.00;;;2.60;;
7563;SDS011;3823;53.586;10.040;2023-03-23T11:42:47;6.40;;;1.92;;
7563;SDS011;3823;53.586;10.040;2023-03-23T11:50:52;5.45;;;2.45;;
7563;SDS011;3823;53.586;10.040;2023-03-23T11:58:59;6.70;;;2.55;;
7563;SDS011;3823;53.586;10.040;2023-03-23T12:04:19;9.25;;;3.60;;
7563;SDS011;3823;53.586;10.040;2023-03-23T12:06:52;8.77;;;2.92;;
7563;SDS011;3823;53.586;10.040;2023-03-23T12:09:39;6.72;;;3.20;;
7563;SDS011;3823;53.586;10.040;2023-03-23T12:12:32;10.13;;;3.60;;
7563;SDS011;3823;53.586;10.040;2023-03-23T12:15:23;10.60;;;3.65;;
7563;SDS011;3823;53.586;10.040;2023-03-23T12:18:05;5.43;;;3.58;;
7563;SDS011;3823;53.586;10.040;2023-03-23T12:26:24;11.38;;;4.55;;
7563;SDS011;3823;53.586;10.040;2023-03-23T12:28:58;8.38;;;3.90;;
7563;SDS011;3823;53.586;10.040;2023-03-23T12:34:36;7.53;;;4.47;;
7563;SDS011;3823;53.586;10.040;2023-03-23T12:40:19;8.18;;;4.05;;
7563;SDS011;3823;53.586;10.040;2023-03-23T12:43:00;7.03;;;4.68;;
7563;SDS011;3823;53.586;10.040;2023-03-23T12:45:53;8.65;;;4.55;;
7563;SDS011;3823;53.586;10.040;2023-03-23T12:48:40;14.07;;;5.97;;
7563;SDS011;3823;53.586;10.040;2023-03-23T12:51:24;6.57;;;4.40;;
7563;SDS011;3823;53.586;10.040;2023-03-23T12:59:03;8.38;;;3.78;;
7563;SDS011;3823;53.586;10.040;2023-03-23T13:01:43;11.80;;;3.88;;
7563;SDS011;3823;53.586;10.040;2023-03-23T13:04:20;13.30;;;4.15;;
7563;SDS011;3823;53.586;10.040;2023-03-23T13:06:51;8.80;;;3.90;;
7563;SDS011;3823;53.586;10.040;2023-03-23T13:12:01;6.82;;;4.63;;
7563;SDS011;3823;53.586;10.040;2023-03-23T13:26:01;10.00;;;4.40;;
7563;SDS011;3823;53.586;10.040;2023-03-23T13:28:31;9.98;;;3.60;;
7563;SDS011;3823;53.586;10.040;2023-03-23T13:31:03;7.60;;;3.92;;
7563;SDS011;3823;53.586;10.040;2023-03-23T13:33:37;7.78;;;3.42;;
7563;SDS011;3823;53.586;10.040;2023-03-23T13:36:04;11.23;;;6.00;;
7563;SDS011;3823;53.586;10.040;2023-03-23T13:38:36;4.70;;;3.22;;
7563;SDS011;3823;53.586;10.040;2023-03-23T13:41:10;8.45;;;3.28;;
7563;SDS011;3823;53.586;10.040;2023-03-23T13:43:39;4.90;;;2.75;;
7563;SDS011;3823;53.586;10.040;2023-03-23T13:48:47;4.40;;;2.90;;
7563;SDS011;3823;53.586;10.040;2023-03-23T13:55:08;5.47;;;2.65;;
7563;SDS011;3823;53.586;10.040;2023-03-23T13:56:55;5.30;;;2.50;;
7563;SDS011;3823;53.586;10.040;2023-03-23T14:01:51;6.28;;;3.65;;
7563;SDS011;3823;53.586;10.040;2023-03-23T14:04:20;2.22;;;1.73;;
7563;SDS011;3823;53.586;10.040;2023-03-23T14:06:49;2.75;;;1.08;;
7563;SDS011;3823;53.586;10.040;2023-03-23T14:09:16;4.22;;;1.10;;
7563;SDS011;3823;53.586;10.040;2023-03-23T14:12:00;1.65;;;0.98;;
7563;SDS011;3823;53.586;10.040;2023-03-23T14:14:34;2.00;;;1.10;;
7563;SDS011;3823;53.586;10.040;2023-03-23T14:17:11;2.78;;;1.90;;
7563;SDS011;3823;53.586;10.040;2023-03-23T14:19:44;4.35;;;1.70;;
7563;SDS011;3823;53.586;10.040;2023-03-23T14:22:26;2.50;;;0.85;;
7563;SDS011;3823;53.586;10.040;2023-03-23T14:25:13;4.35;;;1.52;;
7563;SDS011;3823;53.586;10.040;2023-03-23T14:27:41;2.85;;;1.70;;
7563;SDS011;3823;53.586;10.040;2023-03-23T14:30:09;1.90;;;1.23;;
7563;SDS011;3823;53.586;10.040;2023-03-23T14:32:39;2.45;;;1.42;;
7563;SDS011;3823;53.586;10.040;2023-03-23T14:35:07;4.70;;;1.63;;
7563;SDS011;3823;53.586;10.040;2023-03-23T14:37:38;6.57;;;2.28;;
7563;SDS011;3823;53.586;10.040;2023-03-23T14:40:03;2.15;;;1.30;;
7563;SDS011;3823;53.586;10.040;2023-03-23T14:42:32;4.18;;;1.67;;
7563;SDS011;3823;53.586;10.040;2023-03-23T14:45:00;2.40;;;1.20;;
7563;SDS011;3823;53.586;10.040;2023-03-23T14:47:29;2.38;;;1.13;;
7563;SDS011;3823;53.586;10.040;2023-03-23T14:49:59;2.13;;;1.60;;
7563;SDS011;3823;53.586;10.040;2023-03-23T14:52:28;3.38;;;1.38;;
7563;SDS011;3823;53.586;10.040;2023-03-23T14:55:10;8.15;;;1.67;;
7563;SDS011;3823;53.586;10.040;2023-03-23T14:57:45;2.85;;;1.05;;
7563;SDS011;3823;53.586;10.040;2023-03-23T15:00:13;3.17;;;1.27;;
7563;SDS011;3823;53.586;10.040;2023-03-23T15:02:40;2.88;;;1.60;;
7563;SDS011;3823;53.586;10.040;2023-03-23T15:05:16;7.45;;;1.60;;
7563;SDS011;3823;53.586;10.040;2023-03-23T15:07:47;1.90;;;1.15;;
7563;SDS011;3823;53.586;10.040;2023-03-23T15:10:20;9.10;;;1.95;;
7563;SDS011;3823;53.586;10.040;2023-03-23T15:12:48;3.83;;;1.40;;
7563;SDS011;3823;53.586;10.040;2023-03-23T15:17:45;1.83;;;1.73;;
7563;SDS011;3823;53.586;10.040;2023-03-23T15:20:30;3.22;;;2.00;;
7563;SDS011;3823;53.586;10.040;2023-03-23T15:23:07;2.13;;;1.52;;
7563;SDS011;3823;53.586;10.040;2023-03-23T15:25:39;5.35;;;1.38;;
7563;SDS011;3823;53.586;10.040;2023-03-23T15:28:17;2.75;;;1.63;;
7563;SDS011;3823;53.586;10.040;2023-03-23T15:30:47;3.92;;;1.63;;
7563;SDS011;3823;53.586;10.040;2023-03-23T15:33:15;3.08;;;1.77;;
7563;SDS011;3823;53.586;10.040;2023-03-23T15:35:46;7.85;;;2.05;;
7563;SDS011;3823;53.586;10.040;2023-03-23T15:40:51;3.05;;;1.65;;
7563;SDS011;3823;53.586;10.040;2023-03-23T15:48:46;2.72;;;1.65;;
7563;SDS011;3823;53.586;10.040;2023-03-23T15:51:25;1.65;;;1.17;;
7563;SDS011;3823;53.586;10.040;2023-03-23T15:53:53;4.85;;;2.17;;
7563;SDS011;3823;53.586;10.040;2023-03-23T15:56:20;2.75;;;1.90;;
7563;SDS011;3823;53.586;10.040;2023-03-23T15:58:46;10.75;;;2.58;;
7563;SDS011;3823;53.586;10.040;2023-03-23T16:01:13;4.00;;;1.73;;
7563;SDS011;3823;53.586;10.040;2023-03-23T16:06:15;8.98;;;2.20;;
7563;SDS011;3823;53.586;10.040;2023-03-23T16:08:43;1.80;;;1.50;;
7563;SDS011;3823;53.586;10.040;2023-03-23T16:11:09;2.03;;;1.80;;
7563;SDS011;3823;53.586;10.040;2023-03-23T16:13:36;3.15;;;2.20;;
7563;SDS011;3823;53.586;10.040;2023-03-23T16:16:02;6.88;;;1.38;;
7563;SDS011;3823;53.586;10.040;2023-03-23T16:18:29;5.88;;;2.15;;
7563;SDS011;3823;53.586;10.040;2023-03-23T16:20:56;4.80;;;1.77;;
7563;SDS011;3823;53.586;10.040;2023-03-23T16:23:22;9.70;;;2.83;;
7563;SDS011;3823;53.586;10.040;2023-03-23T16:25:48;5.68;;;2.83;;
7563;SDS011;3823;53.586;10.040;2023-03-23T16:28:13;5.28;;;2.25;;
7563;SDS011;3823;53.586;10.040;2023-03-23T16:30:40;3.90;;;1.85;;
7563;SDS011;3823;53.586;10.040;2023-03-23T16:33:06;6.45;;;1.98;;
7563;SDS011;3823;53.586;10.040;2023-03-23T16:35:32;2.13;;;1.65;;
7563;SDS011;3823;53.586;10.040;2023-03-23T16:37:58;5.00;;;1.95;;
7563;SDS011;3823;53.586;10.040;2023-03-23T16:40:24;4.75;;;2.28;;
7563;SDS011;3823;53.586;10.040;2023-03-23T16:42:51;3.05;;;1.73;;
7563;SDS011;3823;53.586;10.040;2023-03-23T16:45:17;2.60;;;1.80;;
7563;SDS011;3823;53.586;10.040;2023-03-23T16:47:43;3.38;;;2.05;;
7563;SDS011;3823;53.586;10.040;2023-03-23T16:50:10;7.72;;;2.20;;
7563;SDS011;3823;53.586;10.040;2023-03-23T16:52:41;5.15;;;2.90;;